sensor_id;sensor_type;location;lat;lon;timestamp;pressure;altitude;pressure_sealevel;temperature;humidity
54459;BME280;40368;49.350;8.152;2023-12-20T00:00:44;1002.4;;;11.67;53.72
54459;BME280;40368;49.350;8.152;2023-12-20T00:01:44;1002.4;;;11.65;53.86
54459;BME280;40368;49.350;8.152;2023-12-20T00:02:44;1002.4;;;11.61;54.89
54459;BME280;40368;49.350;8.152;2023-12-20T00:03:43;1002.4;;;11.57;54.24
54459;BME280;40368;49.350;8.152;2023-12-20T00:04:43;1002.4;;;11.55;54.58
54459;BME280;40368;49.350;8.152;2023-12-20T00:05:43;1002.4;;;11.51;54.49
54459;BME280;40368;49.350;8.152;2023-12-20T00:06:43;1002.4;;;11.4;55.55
54459;BME280;40368;49.350;8.152;2023-12-20T00:07:43;1002.3;;;11.3;55.69
54459;BME280;40368;49.350;8.152;2023-12-20T00:08:43;1002.4;;;11.29;55.07
54459;BME280;40368;49.350;8.152;2023-12-20T00:09:43;1002.3;;;11.29;55.81
54459;BME280;40368;49.350;8.152;2023-12-20T00:10:43;1002.3;;;11.27;55.53
54459;BME280;40368;49.350;8.152;2023-12-20T00:11:44;1002.4;;;11.25;55.69
54459;BME280;40368;49.350;8.152;2023-12-20T00:12:44;1002.3;;;11.23;55.57
54459;BME280;40368;49.350;8.152;2023-12-20T00:13:43;1002.3;;;11.25;55.07
54459;BME280;40368;49.350;8.152;2023-12-20T00:14:43;1002.3;;;11.25;55.66
54459;BME280;40368;49.350;8.152;2023-12-20T00:15:43;1002.3;;;11.23;55.65
54459;BME280;40368;49.350;8.152;2023-12-20T00:16:44;1002.3;;;11.23;56.08
54459;BME280;40368;49.350;8.152;2023-12-20T00:17:43;1002.4;;;11.2;56.26
54459;BME280;40368;49.350;8.152;2023-12-20T00:18:43;1002.4;;;11.17;56.42
54459;BME280;40368;49.350;8.152;2023-12-20T00:19:43;1002.4;;;11.19;56.19
54459;BME280;40368;49.350;8.152;2023-12-20T00:20:44;1002.4;;;11.23;56.38
54459;BME280;40368;49.350;8.152;2023-12-20T00:21:43;1002.3;;;11.28;55.69
54459;BME280;40368;49.350;8.152;2023-12-20T00:22:44;1002.4;;;11.34;55.77
54459;BME280;40368;49.350;8.152;2023-12-20T00:23:43;1002.4;;;11.36;55.52
54459;BME280;40368;49.350;8.152;2023-12-20T00:24:43;1002.4;;;11.36;55.7
54459;BME280;40368;49.350;8.152;2023-12-20T00:25:43;1002.4;;;11.4;55.25
54459;BME280;40368;49.350;8.152;2023-12-20T00:26:44;1002.3;;;11.43;55.09
54459;BME280;40368;49.350;8.152;2023-12-20T00:27:44;1002.4;;;11.47;55.61
54459;BME280;40368;49.350;8.152;2023-12-20T00:28:44;1002.4;;;11.49;54.82
54459;BME280;40368;49.350;8.152;2023-12-20T00:29:44;1002.4;;;11.5;54.91
54459;BME280;40368;49.350;8.152;2023-12-20T00:30:43;1002.4;;;11.46;56.32
54459;BME280;40368;49.350;8.152;2023-12-20T00:31:43;1002.3;;;11.36;56.4
54459;BME280;40368;49.350;8.152;2023-12-20T00:32:43;1002.5;;;11.26;56.23
54459;BME280;40368;49.350;8.152;2023-12-20T00:33:43;1002.4;;;11.18;57.64
54459;BME280;40368;49.350;8.152;2023-12-20T00:34:43;1002.4;;;11.17;57.25
54459;BME280;40368;49.350;8.152;2023-12-20T00:35:43;1002.3;;;11.16;57.12
54459;BME280;40368;49.350;8.152;2023-12-20T00:36:43;1002.3;;;11.15;57.5
54459;BME280;40368;49.350;8.152;2023-12-20T00:37:44;1002.3;;;11.06;59.07
54459;BME280;40368;49.350;8.152;2023-12-20T00:38:43;1002.4;;;10.99;58.77
54459;BME280;40368;49.350;8.152;2023-12-20T00:39:44;1002.5;;;10.95;59.35
54459;BME280;40368;49.350;8.152;2023-12-20T00:40:43;1002.4;;;10.95;59.02
54459;BME280;40368;49.350;8.152;2023-12-20T00:41:43;1002.3;;;10.97;58.18
54459;BME280;40368;49.350;8.152;2023-12-20T00:42:43;1002.3;;;11.01;56.71
54459;BME280;40368;49.350;8.152;2023-12-20T00:43:43;1002.4;;;11.06;56.71
54459;BME280;40368;49.350;8.152;2023-12-20T00:44:43;1002.4;;;11.04;58.36
54459;BME280;40368;49.350;8.152;2023-12-20T00:45:43;1002.4;;;10.97;58.18
54459;BME280;40368;49.350;8.152;2023-12-20T00:46:43;1002.5;;;10.91;58.18
54459;BME280;40368;49.350;8.152;2023-12-20T00:47:45;1002.5;;;10.82;59.38
54459;BME280;40368;49.350;8.152;2023-12-20T00:48:44;1002.5;;;10.77;58.63
54459;BME280;40368;49.350;8.152;2023-12-20T00:49:43;1002.4;;;10.71;58.83
54459;BME280;40368;49.350;8.152;2023-12-20T00:50:43;1002.4;;;10.69;58
54459;BME280;40368;49.350;8.152;2023-12-20T00:51:43;1002.4;;;10.75;57.68
54459;BME280;40368;49.350;8.152;2023-12-20T00:52:44;1002.4;;;10.79;57.67
54459;BME280;40368;49.350;8.152;2023-12-20T00:53:43;1002.4;;;10.82;57.59
54459;BME280;40368;49.350;8.152;2023-12-20T00:54:43;1002.4;;;10.86;57.02
54459;BME280;40368;49.350;8.152;2023-12-20T00:55:43;1002.3;;;10.92;56.85
54459;BME280;40368;49.350;8.152;2023-12-20T00:56:44;1002.5;;;10.98;57.3
54459;BME280;40368;49.350;8.152;2023-12-20T00:57:43;1002.4;;;11;57.88
54459;BME280;40368;49.350;8.152;2023-12-20T00:58:43;1002.4;;;11.04;57.43
54459;BME280;40368;49.350;8.152;2023-12-20T00:59:43;1002.4;;;11.08;57.07
54459;BME280;40368;49.350;8.152;2023-12-20T01:00:44;1002.4;;;11.07;57.87
54459;BME280;40368;49.350;8.152;2023-12-20T01:01:43;1002.4;;;11.08;56.94
54459;BME280;40368;49.350;8.152;2023-12-20T01:02:43;1002.3;;;11.15;56.84
54459;BME280;40368;49.350;8.152;2023-12-20T01:03:44;1002.4;;;11.21;56.63
54459;BME280;40368;49.350;8.152;2023-12-20T01:04:44;1002.4;;;11.25;56.54
54459;BME280;40368;49.350;8.152;2023-12-20T01:05:44;1002.4;;;11.29;56.78
54459;BME280;40368;49.350;8.152;2023-12-20T01:06:44;1002.4;;;11.28;56.64
54459;BME280;40368;49.350;8.152;2023-12-20T01:07:43;1002.3;;;11.17;57.33
54459;BME280;40368;49.350;8.152;2023-12-20T01:08:43;1002.3;;;11.11;58.11
54459;BME280;40368;49.350;8.152;2023-12-20T01:09:44;1002.4;;;11.13;56.63
54459;BME280;40368;49.350;8.152;2023-12-20T01:10:43;1002.4;;;11.18;56.85
54459;BME280;40368;49.350;8.152;2023-12-20T01:11:43;1002.4;;;11.22;56.58
54459;BME280;40368;49.350;8.152;2023-12-20T01:12:44;1002.4;;;11.33;57.4
54459;BME280;40368;49.350;8.152;2023-12-20T01:13:43;1002.5;;;11.28;57.12
54459;BME280;40368;49.350;8.152;2023-12-20T01:14:43;1002.4;;;11.27;56.2
54459;BME280;40368;49.350;8.152;2023-12-20T01:15:43;1002.4;;;11.26;57.17
54459;BME280;40368;49.350;8.152;2023-12-20T01:16:44;1002.3;;;11.16;56.71
54459;BME280;40368;49.350;8.152;2023-12-20T01:17:44;1002.4;;;11.09;56.88
54459;BME280;40368;49.350;8.152;2023-12-20T01:18:44;1002.4;;;11.04;57.67
54459;BME280;40368;49.350;8.152;2023-12-20T01:19:43;1002.3;;;10.96;57.05
54459;BME280;40368;49.350;8.152;2023-12-20T01:20:43;1002.3;;;10.93;57.59
54459;BME280;40368;49.350;8.152;2023-12-20T01:21:43;1002.4;;;10.82;58.28
54459;BME280;40368;49.350;8.152;2023-12-20T01:22:44;1002.3;;;10.75;57.89
54459;BME280;40368;49.350;8.152;2023-12-20T01:23:43;1002.4;;;10.77;57.61
54459;BME280;40368;49.350;8.152;2023-12-20T01:24:44;1002.2;;;10.78;57.67
54459;BME280;40368;49.350;8.152;2023-12-20T01:25:43;1002.3;;;10.81;57.43
54459;BME280;40368;49.350;8.152;2023-12-20T01:26:43;1002.3;;;10.83;57.14
54459;BME280;40368;49.350;8.152;2023-12-20T01:27:44;1002.2;;;10.83;57.19
54459;BME280;40368;49.350;8.152;2023-12-20T01:28:44;1002.3;;;10.84;57.31
54459;BME280;40368;49.350;8.152;2023-12-20T01:29:44;1002.3;;;10.85;57.61
54459;BME280;40368;49.350;8.152;2023-12-20T01:30:43;1002.2;;;10.83;56.94
54459;BME280;40368;49.350;8.152;2023-12-20T01:31:43;1002.3;;;10.85;57.12
54459;BME280;40368;49.350;8.152;2023-12-20T01:32:43;1002.3;;;10.86;57.19
54459;BME280;40368;49.350;8.152;2023-12-20T01:33:43;1002.3;;;10.85;56.85
54459;BME280;40368;49.350;8.152;2023-12-20T01:34:43;1002.3;;;10.84;56.98
54459;BME280;40368;49.350;8.152;2023-12-20T01:35:43;1002.2;;;10.87;56.65
54459;BME280;40368;49.350;8.152;2023-12-20T01:36:44;1002.2;;;10.91;56.49
54459;BME280;40368;49.350;8.152;2023-12-20T01:37:43;1002.1;;;10.98;56.29
54459;BME280;40368;49.350;8.152;2023-12-20T01:38:43;1002.2;;;11.04;56.09
54459;BME280;40368;49.350;8.152;2023-12-20T01:39:43;1002.1;;;11.11;56.14
54459;BME280;40368;49.350;8.152;2023-12-20T01:40:43;1002.1;;;11.14;56.28
54459;BME280;40368;49.350;8.152;2023-12-20T01:41:43;1002.1;;;11.06;56.38
54459;BME280;40368;49.350;8.152;2023-12-20T01:42:43;1002.2;;;11.08;56.31
54459;BME280;40368;49.350;8.152;2023-12-20T01:43:43;1002.1;;;11.12;56.04
54459;BME280;40368;49.350;8.152;2023-12-20T01:44:43;1002.2;;;11.16;55.97
54459;BME280;40368;49.350;8.152;2023-12-20T01:45:43;1002.2;;;11.16;56.06
54459;BME280;40368;49.350;8.152;2023-12-20T01:46:43;1002.1;;;11.18;56.08
54459;BME280;40368;49.350;8.152;2023-12-20T01:47:43;1002.1;;;11.2;55.52
54459;BME280;40368;49.350;8.152;2023-12-20T01:48:44;1002.1;;;11.26;55.72
54459;BME280;40368;49.350;8.152;2023-12-20T01:49:44;1002.1;;;11.3;55.56
54459;BME280;40368;49.350;8.152;2023-12-20T01:50:44;1002;;;11.3;55.64
54459;BME280;40368;49.350;8.152;2023-12-20T01:51:43;1002;;;11.25;55.47
54459;BME280;40368;49.350;8.152;2023-12-20T01:52:43;1002;;;11.13;56.08
54459;BME280;40368;49.350;8.152;2023-12-20T01:53:43;1002;;;11.06;56.37
54459;BME280;40368;49.350;8.152;2023-12-20T01:54:43;1002;;;11.05;56.12
54459;BME280;40368;49.350;8.152;2023-12-20T01:55:44;1002.1;;;11.07;56.01
54459;BME280;40368;49.350;8.152;2023-12-20T01:56:43;1002;;;11.09;55.91
54459;BME280;40368;49.350;8.152;2023-12-20T01:57:43;1002;;;11.13;55.86
54459;BME280;40368;49.350;8.152;2023-12-20T01:58:44;1002;;;11.15;55.86
54459;BME280;40368;49.350;8.152;2023-12-20T01:59:44;1002.1;;;11.15;55.86
54459;BME280;40368;49.350;8.152;2023-12-20T02:00:43;1002.1;;;11.15;55.83
54459;BME280;40368;49.350;8.152;2023-12-20T02:01:44;1002.1;;;11.11;55.75
54459;BME280;40368;49.350;8.152;2023-12-20T02:02:43;1002.1;;;11.12;55.87
54459;BME280;40368;49.350;8.152;2023-12-20T02:03:44;1002.1;;;11.1;55.82
54459;BME280;40368;49.350;8.152;2023-12-20T02:04:43;1002.2;;;11.08;55.87
54459;BME280;40368;49.350;8.152;2023-12-20T02:05:43;1002.2;;;11.1;55.9
54459;BME280;40368;49.350;8.152;2023-12-20T02:06:43;1002.2;;;11.09;55.85
54459;BME280;40368;49.350;8.152;2023-12-20T02:07:43;1002.2;;;11.08;55.83
54459;BME280;40368;49.350;8.152;2023-12-20T02:08:44;1002.2;;;11.07;55.76
54459;BME280;40368;49.350;8.152;2023-12-20T02:09:43;1002.2;;;11.08;55.95
54459;BME280;40368;49.350;8.152;2023-12-20T02:10:43;1002.2;;;11.05;55.97
54459;BME280;40368;49.350;8.152;2023-12-20T02:11:43;1002.2;;;11.04;56.09
54459;BME280;40368;49.350;8.152;2023-12-20T02:12:43;1002.2;;;11.02;55.99
54459;BME280;40368;49.350;8.152;2023-12-20T02:13:44;1002.1;;;11.01;55.87
54459;BME280;40368;49.350;8.152;2023-12-20T02:14:43;1002.1;;;11.01;56.11
54459;BME280;40368;49.350;8.152;2023-12-20T02:15:44;1002.2;;;11.05;56.02
54459;BME280;40368;49.350;8.152;2023-12-20T02:16:43;1002.2;;;11.07;55.89
54459;BME280;40368;49.350;8.152;2023-12-20T02:17:43;1002.1;;;11.11;55.61
54459;BME280;40368;49.350;8.152;2023-12-20T02:18:43;1002.1;;;11.15;55.83
54459;BME280;40368;49.350;8.152;2023-12-20T02:19:43;1002.1;;;11.23;55.52
54459;BME280;40368;49.350;8.152;2023-12-20T02:20:43;1002.1;;;11.29;55.62
54459;BME280;40368;49.350;8.152;2023-12-20T02:21:43;1002.2;;;11.34;55.3
54459;BME280;40368;49.350;8.152;2023-12-20T02:22:44;1002.1;;;11.38;55.19
54459;BME280;40368;49.350;8.152;2023-12-20T02:23:43;1002.2;;;11.41;55.3
54459;BME280;40368;49.350;8.152;2023-12-20T02:24:43;1002.2;;;11.45;54.92
54459;BME280;40368;49.350;8.152;2023-12-20T02:25:43;1002.2;;;11.48;54.9
54459;BME280;40368;49.350;8.152;2023-12-20T02:26:44;1002.2;;;11.49;55.08
54459;BME280;40368;49.350;8.152;2023-12-20T02:27:43;1002.3;;;11.43;55.3
54459;BME280;40368;49.350;8.152;2023-12-20T02:28:43;1002.3;;;11.4;55.41
54459;BME280;40368;49.350;8.152;2023-12-20T02:29:44;1002.3;;;11.31;55.59
54459;BME280;40368;49.350;8.152;2023-12-20T02:30:43;1002.3;;;11.25;55.96
54459;BME280;40368;49.350;8.152;2023-12-20T02:31:43;1002.2;;;11.24;55.57
54459;BME280;40368;49.350;8.152;2023-12-20T02:32:43;1002.2;;;11.27;55.93
54459;BME280;40368;49.350;8.152;2023-12-20T02:33:44;1002.2;;;11.26;55.76
54459;BME280;40368;49.350;8.152;2023-12-20T02:34:43;1002.1;;;11.26;55.44
54459;BME280;40368;49.350;8.152;2023-12-20T02:35:43;1002.1;;;11.27;55.69
54459;BME280;40368;49.350;8.152;2023-12-20T02:36:43;1002;;;11.22;55.92
54459;BME280;40368;49.350;8.152;2023-12-20T02:37:44;1001.9;;;11.19;55.62
54459;BME280;40368;49.350;8.152;2023-12-20T02:38:43;1001.9;;;11.2;55.73
54459;BME280;40368;49.350;8.152;2023-12-20T02:39:43;1001.8;;;11.16;55.86
54459;BME280;40368;49.350;8.152;2023-12-20T02:40:43;1001.8;;;11.14;55.97
54459;BME280;40368;49.350;8.152;2023-12-20T02:41:44;1001.8;;;11.1;56.09
54459;BME280;40368;49.350;8.152;2023-12-20T02:42:43;1001.8;;;11.1;55.85
54459;BME280;40368;49.350;8.152;2023-12-20T02:43:43;1001.8;;;11.1;56.3
54459;BME280;40368;49.350;8.152;2023-12-20T02:44:43;1001.8;;;11.09;55.86
54459;BME280;40368;49.350;8.152;2023-12-20T02:45:43;1001.9;;;11.11;55.99
54459;BME280;40368;49.350;8.152;2023-12-20T02:46:43;1001.9;;;11.08;56.06
54459;BME280;40368;49.350;8.152;2023-12-20T02:47:43;1001.9;;;11.06;56.31
54459;BME280;40368;49.350;8.152;2023-12-20T02:48:43;1001.9;;;11.04;56.29
54459;BME280;40368;49.350;8.152;2023-12-20T02:49:43;1001.8;;;11.01;56.35
54459;BME280;40368;49.350;8.152;2023-12-20T02:50:44;1001.8;;;10.99;56.52
54459;BME280;40368;49.350;8.152;2023-12-20T02:51:43;1001.9;;;10.94;56.74
54459;BME280;40368;49.350;8.152;2023-12-20T02:52:44;1001.9;;;10.87;57.1
54459;BME280;40368;49.350;8.152;2023-12-20T02:53:44;1001.9;;;10.83;56.9
54459;BME280;40368;49.350;8.152;2023-12-20T02:54:43;1002;;;10.86;56.66
54459;BME280;40368;49.350;8.152;2023-12-20T02:55:43;1001.9;;;10.91;56.64
54459;BME280;40368;49.350;8.152;2023-12-20T02:56:43;1002;;;10.95;56.62
54459;BME280;40368;49.350;8.152;2023-12-20T02:57:43;1002;;;10.99;56.56
54459;BME280;40368;49.350;8.152;2023-12-20T02:58:43;1002;;;11.03;56.75
54459;BME280;40368;49.350;8.152;2023-12-20T02:59:43;1002;;;11.07;56.37
54459;BME280;40368;49.350;8.152;2023-12-20T03:00:43;1002;;;11.13;56.16
54459;BME280;40368;49.350;8.152;2023-12-20T03:01:44;1002;;;11.17;55.93
54459;BME280;40368;49.350;8.152;2023-12-20T03:02:44;1002;;;11.26;55.64
54459;BME280;40368;49.350;8.152;2023-12-20T03:03:43;1002;;;11.32;55.6
54459;BME280;40368;49.350;8.152;2023-12-20T03:04:43;1002;;;11.34;55.65
54459;BME280;40368;49.350;8.152;2023-12-20T03:05:43;1002.1;;;11.37;55.53
54459;BME280;40368;49.350;8.152;2023-12-20T03:06:43;1002.1;;;11.43;55.09
54459;BME280;40368;49.350;8.152;2023-12-20T03:07:44;1002.1;;;11.45;55.51
54459;BME280;40368;49.350;8.152;2023-12-20T03:08:43;1002;;;11.35;55.53
54459;BME280;40368;49.350;8.152;2023-12-20T03:09:43;1002;;;11.33;55.26
54459;BME280;40368;49.350;8.152;2023-12-20T03:10:44;1002;;;11.3;55.42
54459;BME280;40368;49.350;8.152;2023-12-20T03:11:44;1002.1;;;11.27;55.76
54459;BME280;40368;49.350;8.152;2023-12-20T03:12:44;1002.1;;;11.18;55.94
54459;BME280;40368;49.350;8.152;2023-12-20T03:13:43;1002.2;;;11.01;56.51
54459;BME280;40368;49.350;8.152;2023-12-20T03:14:44;1002.2;;;10.98;56.62
54459;BME280;40368;49.350;8.152;2023-12-20T03:15:44;1002.2;;;10.96;56.82
54459;BME280;40368;49.350;8.152;2023-12-20T03:16:46;1002.2;;;10.89;56.91
54459;BME280;40368;49.350;8.152;2023-12-20T03:17:44;1002.2;;;10.84;57.1
54459;BME280;40368;49.350;8.152;2023-12-20T03:18:44;1002.3;;;10.76;57.69
54459;BME280;40368;49.350;8.152;2023-12-20T03:19:43;1002.3;;;10.69;57.63
54459;BME280;40368;49.350;8.152;2023-12-20T03:20:44;1002.3;;;10.62;58.32
54459;BME280;40368;49.350;8.152;2023-12-20T03:21:44;1002.3;;;10.56;58.36
54459;BME280;40368;49.350;8.152;2023-12-20T03:22:43;1002.2;;;10.46;58.58
54459;BME280;40368;49.350;8.152;2023-12-20T03:23:43;1002.2;;;10.39;59.01
54459;BME280;40368;49.350;8.152;2023-12-20T03:24:43;1002.1;;;10.36;58.81
54459;BME280;40368;49.350;8.152;2023-12-20T03:25:44;1002.2;;;10.36;59.2
54459;BME280;40368;49.350;8.152;2023-12-20T03:26:44;1002.1;;;10.24;59.57
54459;BME280;40368;49.350;8.152;2023-12-20T03:27:43;1002.2;;;10.2;59.51
54459;BME280;40368;49.350;8.152;2023-12-20T03:28:43;1002.1;;;10.22;59.51
54459;BME280;40368;49.350;8.152;2023-12-20T03:29:43;1002.1;;;10.18;60.05
54459;BME280;40368;49.350;8.152;2023-12-20T03:30:44;1002.1;;;10.04;60.31
54459;BME280;40368;49.350;8.152;2023-12-20T03:31:43;1002.1;;;10.03;60.44
54459;BME280;40368;49.350;8.152;2023-12-20T03:32:44;1002.1;;;10.03;60.63
54459;BME280;40368;49.350;8.152;2023-12-20T03:33:43;1002.2;;;9.97;60.69
54459;BME280;40368;49.350;8.152;2023-12-20T03:34:43;1002;;;9.97;60.88
54459;BME280;40368;49.350;8.152;2023-12-20T03:35:43;1002.1;;;10.02;60.88
54459;BME280;40368;49.350;8.152;2023-12-20T03:36:43;1002.1;;;9.99;60.89
54459;BME280;40368;49.350;8.152;2023-12-20T03:37:44;1002;;;10.01;61.15
54459;BME280;40368;49.350;8.152;2023-12-20T03:38:43;1002.1;;;10.03;60.7
54459;BME280;40368;49.350;8.152;2023-12-20T03:39:43;1002;;;10.02;60.85
54459;BME280;40368;49.350;8.152;2023-12-20T03:40:43;1002;;;10.04;60.9
54459;BME280;40368;49.350;8.152;2023-12-20T03:41:44;1002;;;10.08;60.52
54459;BME280;40368;49.350;8.152;2023-12-20T03:42:43;1001.9;;;10.07;61.03
54459;BME280;40368;49.350;8.152;2023-12-20T03:43:43;1001.9;;;10.05;61.31
54459;BME280;40368;49.350;8.152;2023-12-20T03:44:44;1001.9;;;10.07;60.89
54459;BME280;40368;49.350;8.152;2023-12-20T03:45:43;1001.9;;;10.08;61.12
54459;BME280;40368;49.350;8.152;2023-12-20T03:46:43;1001.9;;;10.07;61.12
54459;BME280;40368;49.350;8.152;2023-12-20T03:47:44;1002;;;10.09;61.09
54459;BME280;40368;49.350;8.152;2023-12-20T03:48:43;1001.9;;;10.01;61.13
54459;BME280;40368;49.350;8.152;2023-12-20T03:49:43;1001.9;;;9.99;61.49
54459;BME280;40368;49.350;8.152;2023-12-20T03:50:43;1002;;;9.89;61.77
54459;BME280;40368;49.350;8.152;2023-12-20T03:51:43;1001.9;;;9.85;62.02
54459;BME280;40368;49.350;8.152;2023-12-20T03:52:43;1002;;;9.85;61.9
54459;BME280;40368;49.350;8.152;2023-12-20T03:53:43;1002;;;9.89;61.6
54459;BME280;40368;49.350;8.152;2023-12-20T03:54:43;1002;;;9.97;61.65
54459;BME280;40368;49.350;8.152;2023-12-20T03:55:44;1002;;;9.95;61.69
54459;BME280;40368;49.350;8.152;2023-12-20T03:56:44;1001.9;;;9.89;61.94
54459;BME280;40368;49.350;8.152;2023-12-20T03:57:43;1002;;;9.85;62.33
54459;BME280;40368;49.350;8.152;2023-12-20T03:58:44;1002;;;9.82;62.36
54459;BME280;40368;49.350;8.152;2023-12-20T03:59:43;1002;;;9.78;62.5
54459;BME280;40368;49.350;8.152;2023-12-20T04:00:44;1001.9;;;9.72;62.82
54459;BME280;40368;49.350;8.152;2023-12-20T04:01:44;1001.9;;;9.7;62.7
54459;BME280;40368;49.350;8.152;2023-12-20T04:02:44;1002;;;9.68;62.86
54459;BME280;40368;49.350;8.152;2023-12-20T04:03:44;1002;;;9.64;62.96
54459;BME280;40368;49.350;8.152;2023-12-20T04:04:43;1002;;;9.6;63.32
54459;BME280;40368;49.350;8.152;2023-12-20T04:05:43;1002.1;;;9.59;63.31
54459;BME280;40368;49.350;8.152;2023-12-20T04:06:43;1002.1;;;9.63;63.41
54459;BME280;40368;49.350;8.152;2023-12-20T04:07:44;1002.1;;;9.64;63.09
54459;BME280;40368;49.350;8.152;2023-12-20T04:08:44;1002.1;;;9.68;63.45
54459;BME280;40368;49.350;8.152;2023-12-20T04:09:43;1002.2;;;9.68;63.24
54459;BME280;40368;49.350;8.152;2023-12-20T04:10:44;1002.2;;;9.81;63.01
54459;BME280;40368;49.350;8.152;2023-12-20T04:11:43;1002.3;;;9.85;62.66
54459;BME280;40368;49.350;8.152;2023-12-20T04:12:43;1002.3;;;9.91;62.75
54459;BME280;40368;49.350;8.152;2023-12-20T04:13:44;1002.3;;;9.96;62.82
54459;BME280;40368;49.350;8.152;2023-12-20T04:14:43;1002.3;;;9.97;62.61
54459;BME280;40368;49.350;8.152;2023-12-20T04:15:43;1002.3;;;10.03;61.96
54459;BME280;40368;49.350;8.152;2023-12-20T04:16:44;1002.4;;;10.06;62.32
54459;BME280;40368;49.350;8.152;2023-12-20T04:17:43;1002.3;;;10.02;62.29
54459;BME280;40368;49.350;8.152;2023-12-20T04:18:43;1002.4;;;10.04;62.1
54459;BME280;40368;49.350;8.152;2023-12-20T04:19:44;1002.4;;;10.1;62.26
54459;BME280;40368;49.350;8.152;2023-12-20T04:20:43;1002.4;;;10.08;62.14
54459;BME280;40368;49.350;8.152;2023-12-20T04:21:44;1002.3;;;10.08;62.04
54459;BME280;40368;49.350;8.152;2023-12-20T04:22:44;1002.3;;;10.14;61.96
54459;BME280;40368;49.350;8.152;2023-12-20T04:23:43;1002.3;;;10.13;62.09
54459;BME280;40368;49.350;8.152;2023-12-20T04:24:43;1002.4;;;10.12;61.82
54459;BME280;40368;49.350;8.152;2023-12-20T04:25:43;1002.5;;;10.1;61.78
54459;BME280;40368;49.350;8.152;2023-12-20T04:26:43;1002.5;;;10.14;61.87
54459;BME280;40368;49.350;8.152;2023-12-20T04:27:43;1002.6;;;10.18;61.81
54459;BME280;40368;49.350;8.152;2023-12-20T04:28:43;1002.6;;;10.17;61.6
54459;BME280;40368;49.350;8.152;2023-12-20T04:29:44;1002.5;;;10.18;61.69
54459;BME280;40368;49.350;8.152;2023-12-20T04:30:43;1002.6;;;10.18;61.81
54459;BME280;40368;49.350;8.152;2023-12-20T04:31:43;1002.6;;;10.17;61.71
54459;BME280;40368;49.350;8.152;2023-12-20T04:32:44;1002.5;;;10.18;61.58
54459;BME280;40368;49.350;8.152;2023-12-20T04:33:43;1002.5;;;10.21;61.3
54459;BME280;40368;49.350;8.152;2023-12-20T04:34:43;1002.6;;;10.24;61.18
54459;BME280;40368;49.350;8.152;2023-12-20T04:35:43;1002.6;;;10.25;61.04
54459;BME280;40368;49.350;8.152;2023-12-20T04:36:43;1002.6;;;10.27;60.98
54459;BME280;40368;49.350;8.152;2023-12-20T04:37:43;1002.6;;;10.22;61.75
54459;BME280;40368;49.350;8.152;2023-12-20T04:38:43;1002.7;;;10.16;61.62
54459;BME280;40368;49.350;8.152;2023-12-20T04:39:43;1002.7;;;10.17;61.16
54459;BME280;40368;49.350;8.152;2023-12-20T04:40:44;1002.7;;;10.21;61.46
54459;BME280;40368;49.350;8.152;2023-12-20T04:41:43;1002.8;;;10.22;61.38
54459;BME280;40368;49.350;8.152;2023-12-20T04:42:43;1002.8;;;10.22;61.26
54459;BME280;40368;49.350;8.152;2023-12-20T04:43:44;1002.8;;;10.2;61.83
54459;BME280;40368;49.350;8.152;2023-12-20T04:44:43;1002.7;;;10.21;61.49
54459;BME280;40368;49.350;8.152;2023-12-20T04:45:43;1002.9;;;10.18;61.85
54459;BME280;40368;49.350;8.152;2023-12-20T04:46:43;1002.9;;;10.22;61.73
54459;BME280;40368;49.350;8.152;2023-12-20T04:47:43;1002.8;;;10.3;61.03
54459;BME280;40368;49.350;8.152;2023-12-20T04:48:44;1002.8;;;10.4;60.85
54459;BME280;40368;49.350;8.152;2023-12-20T04:49:43;1002.9;;;10.46;60.5
54459;BME280;40368;49.350;8.152;2023-12-20T04:50:44;1002.8;;;10.6;59.91
54459;BME280;40368;49.350;8.152;2023-12-20T04:51:43;1002.8;;;10.7;59.86
54459;BME280;40368;49.350;8.152;2023-12-20T04:52:43;1002.8;;;10.79;59.46
54459;BME280;40368;49.350;8.152;2023-12-20T04:53:43;1002.8;;;10.89;59.27
54459;BME280;40368;49.350;8.152;2023-12-20T04:54:43;1002.8;;;10.88;59.51
54459;BME280;40368;49.350;8.152;2023-12-20T04:55:43;1002.9;;;10.92;58.88
54459;BME280;40368;49.350;8.152;2023-12-20T04:56:43;1002.8;;;10.96;58.65
54459;BME280;40368;49.350;8.152;2023-12-20T04:57:43;1002.9;;;10.99;58.78
54459;BME280;40368;49.350;8.152;2023-12-20T04:58:44;1002.9;;;11.01;58.31
54459;BME280;40368;49.350;8.152;2023-12-20T04:59:44;1003;;;11.07;58
54459;BME280;40368;49.350;8.152;2023-12-20T05:00:43;1003;;;11.09;57.78
54459;BME280;40368;49.350;8.152;2023-12-20T05:01:43;1003;;;11.07;58.6
54459;BME280;40368;49.350;8.152;2023-12-20T05:02:44;1003;;;11.05;58.2
54459;BME280;40368;49.350;8.152;2023-12-20T05:03:43;1003;;;11.06;57.96
54459;BME280;40368;49.350;8.152;2023-12-20T05:04:44;1003;;;11.06;57.89
54459;BME280;40368;49.350;8.152;2023-12-20T05:05:43;1003;;;11.07;58.03
54459;BME280;40368;49.350;8.152;2023-12-20T05:06:43;1003;;;11.09;57.83
54459;BME280;40368;49.350;8.152;2023-12-20T05:07:44;1003;;;11.09;58.17
54459;BME280;40368;49.350;8.152;2023-12-20T05:08:43;1003;;;11.1;57.62
54459;BME280;40368;49.350;8.152;2023-12-20T05:09:43;1003;;;11.07;57.91
54459;BME280;40368;49.350;8.152;2023-12-20T05:10:44;1003;;;11.04;58.09
54459;BME280;40368;49.350;8.152;2023-12-20T05:11:43;1003;;;10.96;58.91
54459;BME280;40368;49.350;8.152;2023-12-20T05:12:44;1003;;;10.85;58.9
54459;BME280;40368;49.350;8.152;2023-12-20T05:13:43;1003;;;10.82;58.83
54459;BME280;40368;49.350;8.152;2023-12-20T05:14:43;1003;;;10.78;58.87
54459;BME280;40368;49.350;8.152;2023-12-20T05:15:44;1003.1;;;10.8;59.08
54459;BME280;40368;49.350;8.152;2023-12-20T05:16:44;1003.1;;;10.83;58.46
54459;BME280;40368;49.350;8.152;2023-12-20T05:17:43;1003.1;;;10.88;58.39
54459;BME280;40368;49.350;8.152;2023-12-20T05:19:43;1003.1;;;10.91;58.5
54459;BME280;40368;49.350;8.152;2023-12-20T05:20:43;1003.1;;;10.92;58.12
54459;BME280;40368;49.350;8.152;2023-12-20T05:21:43;1003;;;10.92;57.92
54459;BME280;40368;49.350;8.152;2023-12-20T05:22:44;1003.1;;;10.96;57.93
54459;BME280;40368;49.350;8.152;2023-12-20T05:23:43;1003;;;11;57.79
54459;BME280;40368;49.350;8.152;2023-12-20T05:24:43;1003;;;11.04;57.94
54459;BME280;40368;49.350;8.152;2023-12-20T05:25:43;1003.1;;;11.09;57.98
54459;BME280;40368;49.350;8.152;2023-12-20T05:26:43;1003;;;11.14;57.66
54459;BME280;40368;49.350;8.152;2023-12-20T05:27:43;1003;;;11.2;57.53
54459;BME280;40368;49.350;8.152;2023-12-20T05:28:43;1003.1;;;11.27;57.54
54459;BME280;40368;49.350;8.152;2023-12-20T05:29:44;1003;;;11.32;57.09
54459;BME280;40368;49.350;8.152;2023-12-20T05:30:43;1003.1;;;11.32;57.56